ASX714 KCLT-KMEM
Flight info
| Callsign | ASX714 |
|---|---|
| Flight time | 1h 31m |
| Altitude | 30000 |
| Route | BOBZY5 BNA BLUZZ5 |
| Aircraft | A320/M-SDE3FGHIRWY/LB1 |
Departure
| Time | 2026-05-06 14:37 |
|---|---|
| Airport | Charlotte Douglas International Airport (KCLT) |
Arrival
| Time | 2026-05-06 16:08 |
|---|---|
| Airport | Memphis International Airport (KMEM) |
| Time | Latitude | Longitude | Altitude | Speed | Heading |
|---|---|---|---|---|---|
| 2026-05-06 14:26 | 35.22457 | -80.94013 | 729 ft | 0 kts | 270° |
| 2026-05-06 14:31 | 35.22457 | -80.94000 | 731 ft | 3 kts | 272° |
| 2026-05-06 14:31 | 35.22455 | -80.93976 | 730 ft | 3 kts | 286° |
| 2026-05-06 14:31 | 35.22448 | -80.93954 | 730 ft | 3 kts | 314° |
| 2026-05-06 14:32 | 35.22435 | -80.93944 | 729 ft | 2 kts | 8° |
| 2026-05-06 14:32 | 35.22427 | -80.93946 | 729 ft | 1 kts | 19° |
| 2026-05-06 14:32 | 35.22426 | -80.93946 | 729 ft | 0 kts | 19° |
| 2026-05-06 14:35 | 35.22448 | -80.93936 | 729 ft | 10 kts | 24° |
| 2026-05-06 14:35 | 35.22490 | -80.93846 | 731 ft | 14 kts | 72° |
| 2026-05-06 14:35 | 35.22506 | -80.93731 | 732 ft | 13 kts | 84° |
| 2026-05-06 14:36 | 35.22510 | -80.93633 | 732 ft | 10 kts | 103° |
| 2026-05-06 14:36 | 35.22447 | -80.93608 | 731 ft | 12 kts | 177° |
| 2026-05-06 14:36 | 35.22211 | -80.93593 | 729 ft | 69 kts | 176° |
| 2026-05-06 14:36 | 35.21505 | -80.93532 | 723 ft | 131 kts | 176° |
| 2026-05-06 14:37 | 35.20462 | -80.93455 | 988 ft | 155 kts | 178° |
| 2026-05-06 14:37 | 35.19371 | -80.93354 | 1680 ft | 157 kts | 180° |
| 2026-05-06 14:37 | 35.18294 | -80.93231 | 2405 ft | 157 kts | 185° |
| 2026-05-06 14:37 | 35.17155 | -80.93108 | 2869 ft | 173 kts | 187° |
| 2026-05-06 14:38 | 35.15973 | -80.93448 | 3135 ft | 181 kts | 219° |
| 2026-05-06 14:38 | 35.15204 | -80.94698 | 3419 ft | 198 kts | 253° |
| 2026-05-06 14:38 | 35.15227 | -80.96444 | 3873 ft | 217 kts | 274° |
| 2026-05-06 14:38 | 35.15460 | -80.98337 | 4398 ft | 235 kts | 274° |
| 2026-05-06 14:39 | 35.15704 | -81.00365 | 5156 ft | 245 kts | 275° |
| 2026-05-06 14:39 | 35.15953 | -81.02445 | 6016 ft | 249 kts | 276° |
| 2026-05-06 14:39 | 35.16203 | -81.04555 | 6871 ft | 252 kts | 276° |
| 2026-05-06 14:39 | 35.16449 | -81.06659 | 7745 ft | 253 kts | 276° |
| 2026-05-06 14:40 | 35.16697 | -81.08799 | 8649 ft | 254 kts | 276° |
| 2026-05-06 14:40 | 35.16941 | -81.10928 | 9565 ft | 254 kts | 275° |
| 2026-05-06 14:40 | 35.17187 | -81.13086 | 10324 ft | 261 kts | 276° |
| 2026-05-06 14:40 | 35.17448 | -81.15389 | 10574 ft | 285 kts | 276° |
| 2026-05-06 14:41 | 35.17730 | -81.17858 | 10762 ft | 308 kts | 276° |
| 2026-05-06 14:41 | 35.18039 | -81.20548 | 10925 ft | 330 kts | 276° |
| 2026-05-06 14:41 | 35.18365 | -81.23375 | 11415 ft | 339 kts | 276° |
| 2026-05-06 14:41 | 35.18696 | -81.26248 | 12120 ft | 341 kts | 276° |
| 2026-05-06 14:42 | 35.19026 | -81.29136 | 12856 ft | 343 kts | 276° |
| 2026-05-06 14:42 | 35.19356 | -81.32012 | 13605 ft | 344 kts | 275° |
| 2026-05-06 14:42 | 35.19431 | -81.34934 | 14238 ft | 346 kts | 268° |
| 2026-05-06 14:42 | 35.19348 | -81.37891 | 14800 ft | 349 kts | 267° |
| 2026-05-06 14:43 | 35.19263 | -81.40836 | 15375 ft | 352 kts | 268° |
| 2026-05-06 14:43 | 35.19176 | -81.43851 | 15919 ft | 357 kts | 268° |
| 2026-05-06 14:43 | 35.19092 | -81.46901 | 16470 ft | 361 kts | 268° |
| 2026-05-06 14:43 | 35.19006 | -81.49991 | 17009 ft | 365 kts | 268° |
| 2026-05-06 14:44 | 35.18915 | -81.53119 | 17526 ft | 369 kts | 269° |
| 2026-05-06 14:44 | 35.18818 | -81.56233 | 18035 ft | 373 kts | 269° |
| 2026-05-06 14:44 | 35.18709 | -81.59425 | 18537 ft | 377 kts | 269° |
| 2026-05-06 14:45 | 35.19062 | -81.65841 | 19409 ft | 382 kts | 283° |
| 2026-05-06 14:45 | 35.19728 | -81.69001 | 19850 ft | 385 kts | 284° |
| 2026-05-06 14:45 | 35.20407 | -81.72194 | 20279 ft | 387 kts | 284° |
| 2026-05-06 14:45 | 35.21086 | -81.75389 | 20695 ft | 390 kts | 284° |
| 2026-05-06 14:46 | 35.21760 | -81.78571 | 21103 ft | 392 kts | 283° |
| 2026-05-06 14:46 | 35.22442 | -81.81812 | 21495 ft | 394 kts | 283° |
| 2026-05-06 14:46 | 35.23128 | -81.85078 | 21943 ft | 395 kts | 283° |
| 2026-05-06 14:46 | 35.23813 | -81.88346 | 22348 ft | 397 kts | 283° |
| 2026-05-06 14:47 | 35.24500 | -81.91652 | 22727 ft | 399 kts | 283° |
| 2026-05-06 14:47 | 35.25180 | -81.94907 | 23078 ft | 401 kts | 283° |
| 2026-05-06 14:47 | 35.25871 | -81.98222 | 23441 ft | 404 kts | 283° |
| 2026-05-06 14:47 | 35.26565 | -82.01569 | 23752 ft | 406 kts | 283° |
| 2026-05-06 14:48 | 35.27259 | -82.04922 | 24045 ft | 408 kts | 283° |
| 2026-05-06 14:48 | 35.27961 | -82.08301 | 24325 ft | 409 kts | 283° |
| 2026-05-06 14:48 | 35.28665 | -82.11688 | 24599 ft | 411 kts | 283° |
| 2026-05-06 14:48 | 35.29363 | -82.15051 | 24859 ft | 413 kts | 283° |
| 2026-05-06 14:49 | 35.30073 | -82.18474 | 25111 ft | 414 kts | 283° |
| 2026-05-06 14:49 | 35.30781 | -82.21896 | 25361 ft | 416 kts | 283° |
| 2026-05-06 14:49 | 35.31493 | -82.25345 | 25613 ft | 417 kts | 283° |
| 2026-05-06 14:49 | 35.32205 | -82.28808 | 25849 ft | 419 kts | 283° |
| 2026-05-06 14:50 | 35.32915 | -82.32275 | 26082 ft | 420 kts | 282° |
| 2026-05-06 14:50 | 35.33627 | -82.35754 | 26302 ft | 421 kts | 283° |
| 2026-05-06 14:50 | 35.34334 | -82.39200 | 26506 ft | 423 kts | 283° |
| 2026-05-06 14:50 | 35.35053 | -82.42710 | 26678 ft | 424 kts | 282° |
| 2026-05-06 14:51 | 35.35771 | -82.46228 | 26840 ft | 426 kts | 282° |
| 2026-05-06 14:51 | 35.36487 | -82.49758 | 26991 ft | 427 kts | 282° |
| 2026-05-06 14:51 | 35.37195 | -82.53254 | 27206 ft | 428 kts | 282° |
| 2026-05-06 14:51 | 35.37912 | -82.56801 | 27350 ft | 429 kts | 282° |
| 2026-05-06 14:52 | 35.38633 | -82.60356 | 27473 ft | 430 kts | 282° |
| 2026-05-06 14:52 | 35.39353 | -82.63910 | 27616 ft | 430 kts | 282° |
| 2026-05-06 14:52 | 35.40074 | -82.67478 | 27786 ft | 430 kts | 282° |
| 2026-05-06 14:52 | 35.40792 | -82.71027 | 27976 ft | 429 kts | 282° |
| 2026-05-06 14:53 | 35.41508 | -82.74570 | 28146 ft | 428 kts | 282° |
| 2026-05-06 14:53 | 35.42223 | -82.78110 | 28325 ft | 428 kts | 282° |
| 2026-05-06 14:53 | 35.42939 | -82.81661 | 28513 ft | 428 kts | 282° |
| 2026-05-06 14:53 | 35.43647 | -82.85199 | 28712 ft | 427 kts | 282° |
| 2026-05-06 14:54 | 35.44354 | -82.88732 | 28895 ft | 426 kts | 282° |
| 2026-05-06 14:54 | 35.45048 | -82.92221 | 29092 ft | 426 kts | 282° |
| 2026-05-06 14:54 | 35.45748 | -82.95750 | 29254 ft | 426 kts | 282° |
| 2026-05-06 14:54 | 35.46450 | -82.99271 | 29475 ft | 425 kts | 282° |
| 2026-05-06 14:55 | 35.47156 | -83.02800 | 29713 ft | 424 kts | 282° |
| 2026-05-06 14:55 | 35.47858 | -83.06306 | 29920 ft | 423 kts | 282° |
| 2026-05-06 14:55 | 35.48557 | -83.09818 | 29982 ft | 421 kts | 282° |
| 2026-05-06 14:56 | 35.49936 | -83.16797 | 29992 ft | 420 kts | 281° |
| 2026-05-06 14:56 | 35.51294 | -83.23703 | 29984 ft | 418 kts | 281° |
| 2026-05-06 14:57 | 35.52656 | -83.30647 | 29990 ft | 419 kts | 281° |
| 2026-05-06 14:57 | 35.54019 | -83.37606 | 29995 ft | 418 kts | 281° |
| 2026-05-06 14:58 | 35.55374 | -83.44559 | 29989 ft | 418 kts | 281° |
| 2026-05-06 14:58 | 35.56715 | -83.51466 | 29989 ft | 418 kts | 281° |
| 2026-05-06 14:59 | 35.58066 | -83.58416 | 29992 ft | 419 kts | 280° |
| 2026-05-06 14:59 | 35.59423 | -83.65398 | 30015 ft | 418 kts | 279° |
| 2026-05-06 15:00 | 35.60753 | -83.72315 | 30001 ft | 418 kts | 279° |
| 2026-05-06 15:00 | 35.62086 | -83.79277 | 29995 ft | 418 kts | 279° |
| 2026-05-06 15:01 | 35.63409 | -83.86196 | 30013 ft | 417 kts | 279° |
| 2026-05-06 15:01 | 35.64735 | -83.93144 | 30012 ft | 417 kts | 279° |
| 2026-05-06 15:02 | 35.66051 | -84.00064 | 30018 ft | 417 kts | 279° |
| 2026-05-06 15:02 | 35.67363 | -84.07012 | 30017 ft | 417 kts | 279° |
| 2026-05-06 15:03 | 35.68675 | -84.13935 | 30014 ft | 417 kts | 279° |
| 2026-05-06 15:03 | 35.69985 | -84.20884 | 30005 ft | 417 kts | 279° |
| 2026-05-06 15:04 | 35.71290 | -84.27848 | 29997 ft | 417 kts | 279° |
| 2026-05-06 15:04 | 35.72578 | -84.34770 | 29977 ft | 418 kts | 279° |
| 2026-05-06 15:05 | 35.73878 | -84.41758 | 29991 ft | 419 kts | 279° |
| 2026-05-06 15:05 | 35.75177 | -84.48752 | 29981 ft | 419 kts | 279° |
| 2026-05-06 15:06 | 35.76478 | -84.55760 | 29980 ft | 420 kts | 279° |
| 2026-05-06 15:06 | 35.77768 | -84.62735 | 29975 ft | 420 kts | 279° |
| 2026-05-06 15:07 | 35.79055 | -84.69763 | 29950 ft | 420 kts | 279° |
| 2026-05-06 15:07 | 35.80120 | -84.75612 | 29956 ft | 421 kts | 279° |
| 2026-05-06 15:08 | 35.81409 | -84.82659 | 29954 ft | 421 kts | 279° |
| 2026-05-06 15:08 | 35.82696 | -84.89715 | 29965 ft | 422 kts | 279° |
| 2026-05-06 15:09 | 35.83969 | -84.96770 | 29964 ft | 422 kts | 279° |
| 2026-05-06 15:09 | 35.85233 | -85.03788 | 29970 ft | 422 kts | 279° |
| 2026-05-06 15:10 | 35.86509 | -85.10855 | 30020 ft | 420 kts | 279° |
| 2026-05-06 15:10 | 35.87772 | -85.17854 | 30014 ft | 419 kts | 279° |
| 2026-05-06 15:11 | 35.89025 | -85.24876 | 30002 ft | 418 kts | 279° |
| 2026-05-06 15:11 | 35.90272 | -85.31899 | 29973 ft | 418 kts | 279° |
| 2026-05-06 15:12 | 35.91508 | -85.38867 | 29971 ft | 417 kts | 279° |
| 2026-05-06 15:12 | 35.92744 | -85.45872 | 29984 ft | 417 kts | 278° |
| 2026-05-06 15:13 | 35.93973 | -85.52850 | 29972 ft | 415 kts | 278° |
| 2026-05-06 15:13 | 35.95196 | -85.59814 | 29971 ft | 415 kts | 278° |
| 2026-05-06 15:14 | 35.96414 | -85.66773 | 29970 ft | 414 kts | 278° |
| 2026-05-06 15:14 | 35.97618 | -85.73686 | 29975 ft | 414 kts | 278° |
| 2026-05-06 15:15 | 35.98836 | -85.80674 | 29980 ft | 414 kts | 278° |
| 2026-05-06 15:15 | 36.00040 | -85.87628 | 29988 ft | 414 kts | 278° |
| 2026-05-06 15:16 | 36.01231 | -85.94546 | 30003 ft | 413 kts | 278° |
| 2026-05-06 15:16 | 36.02422 | -86.01491 | 29999 ft | 413 kts | 278° |
| 2026-05-06 15:17 | 36.03612 | -86.08448 | 30000 ft | 413 kts | 278° |
| 2026-05-06 15:17 | 36.04796 | -86.15391 | 29997 ft | 413 kts | 278° |
| 2026-05-06 15:18 | 36.05971 | -86.22339 | 30015 ft | 412 kts | 278° |
| 2026-05-06 15:18 | 36.07142 | -86.29212 | 30035 ft | 411 kts | 278° |
| 2026-05-06 15:19 | 36.08312 | -86.36129 | 30035 ft | 410 kts | 277° |
| 2026-05-06 15:19 | 36.09464 | -86.43032 | 30034 ft | 409 kts | 277° |
| 2026-05-06 15:20 | 36.10616 | -86.49922 | 30033 ft | 409 kts | 277° |
| 2026-05-06 15:20 | 36.11761 | -86.56797 | 30038 ft | 408 kts | 277° |
| 2026-05-06 15:21 | 36.12902 | -86.63648 | 30043 ft | 405 kts | 277° |
| 2026-05-06 15:21 | 36.13212 | -86.70452 | 30041 ft | 397 kts | 261° |
| 2026-05-06 15:22 | 36.11983 | -86.77102 | 30037 ft | 395 kts | 256° |
| 2026-05-06 15:22 | 36.10671 | -86.83710 | 30015 ft | 395 kts | 256° |
| 2026-05-06 15:23 | 36.09364 | -86.90273 | 30008 ft | 395 kts | 256° |
| 2026-05-06 15:23 | 36.08047 | -86.96857 | 30032 ft | 394 kts | 256° |
| 2026-05-06 15:24 | 36.06733 | -87.03423 | 30029 ft | 392 kts | 256° |
| 2026-05-06 15:24 | 36.05430 | -87.09920 | 30024 ft | 390 kts | 256° |
| 2026-05-06 15:25 | 36.04790 | -87.13087 | 30018 ft | 390 kts | 256° |
| 2026-05-06 15:33 | 36.03878 | -87.17555 | 29984 ft | 390 kts | 256° |
| 2026-05-06 15:34 | 36.02557 | -87.24066 | 29996 ft | 391 kts | 256° |
| 2026-05-06 15:34 | 36.01236 | -87.30599 | 29998 ft | 390 kts | 256° |
| 2026-05-06 15:35 | 35.99923 | -87.37058 | 30016 ft | 389 kts | 256° |
| 2026-05-06 15:35 | 35.98598 | -87.43525 | 30018 ft | 387 kts | 256° |
| 2026-05-06 15:36 | 35.97288 | -87.49929 | 30013 ft | 386 kts | 256° |
| 2026-05-06 15:36 | 35.95966 | -87.56348 | 30015 ft | 385 kts | 255° |
| 2026-05-06 15:37 | 35.94643 | -87.62756 | 30011 ft | 385 kts | 255° |
| 2026-05-06 15:37 | 35.93327 | -87.69146 | 30008 ft | 384 kts | 255° |
| 2026-05-06 15:38 | 35.92012 | -87.75497 | 30014 ft | 383 kts | 256° |
| 2026-05-06 15:38 | 35.90686 | -87.81865 | 30014 ft | 383 kts | 256° |
| 2026-05-06 15:39 | 35.89363 | -87.88222 | 30016 ft | 382 kts | 255° |
| 2026-05-06 15:39 | 35.88032 | -87.94568 | 30014 ft | 382 kts | 255° |
| 2026-05-06 15:40 | 35.86706 | -88.00877 | 30013 ft | 381 kts | 255° |
| 2026-05-06 15:40 | 35.85374 | -88.07213 | 30011 ft | 381 kts | 255° |
| 2026-05-06 15:41 | 35.84052 | -88.13488 | 30062 ft | 380 kts | 256° |
| 2026-05-06 15:41 | 35.82719 | -88.19786 | 30046 ft | 379 kts | 256° |
| 2026-05-06 15:42 | 35.81390 | -88.26064 | 30040 ft | 378 kts | 256° |
| 2026-05-06 15:42 | 35.80066 | -88.32297 | 30037 ft | 377 kts | 256° |
| 2026-05-06 15:43 | 35.78729 | -88.38557 | 30031 ft | 377 kts | 256° |
| 2026-05-06 15:43 | 35.77393 | -88.44811 | 30025 ft | 377 kts | 256° |
| 2026-05-06 15:44 | 35.76065 | -88.51000 | 29882 ft | 371 kts | 256° |
| 2026-05-06 15:44 | 35.75405 | -88.54060 | 28792 ft | 370 kts | 256° |
| 2026-05-06 15:44 | 35.74738 | -88.57143 | 27463 ft | 375 kts | 256° |
| 2026-05-06 15:45 | 35.74061 | -88.60280 | 26036 ft | 382 kts | 255° |
| 2026-05-06 15:45 | 35.73375 | -88.63472 | 24632 ft | 390 kts | 255° |
| 2026-05-06 15:45 | 35.72675 | -88.66739 | 23447 ft | 393 kts | 255° |
| 2026-05-06 15:45 | 35.71981 | -88.69946 | 22438 ft | 389 kts | 255° |
| 2026-05-06 15:46 | 35.71287 | -88.73142 | 21524 ft | 384 kts | 255° |
| 2026-05-06 15:46 | 35.70600 | -88.76300 | 20657 ft | 380 kts | 255° |
| 2026-05-06 15:46 | 35.69921 | -88.79426 | 19835 ft | 375 kts | 255° |
| 2026-05-06 15:46 | 35.69257 | -88.82476 | 19047 ft | 372 kts | 255° |
| 2026-05-06 15:47 | 35.68588 | -88.85537 | 18319 ft | 368 kts | 255° |
| 2026-05-06 15:47 | 35.67924 | -88.88577 | 17510 ft | 364 kts | 255° |
| 2026-05-06 15:47 | 35.67269 | -88.91573 | 16709 ft | 361 kts | 255° |
| 2026-05-06 15:47 | 35.66621 | -88.94537 | 15939 ft | 358 kts | 255° |
| 2026-05-06 15:48 | 35.65974 | -88.97489 | 15192 ft | 355 kts | 255° |
| 2026-05-06 15:48 | 35.65339 | -89.00384 | 14493 ft | 354 kts | 256° |
| 2026-05-06 15:48 | 35.64696 | -89.03317 | 14138 ft | 354 kts | 256° |
| 2026-05-06 15:48 | 35.64054 | -89.06229 | 13989 ft | 343 kts | 256° |
| 2026-05-06 15:49 | 35.63435 | -89.09037 | 14003 ft | 346 kts | 256° |
| 2026-05-06 15:49 | 35.62805 | -89.11901 | 14003 ft | 347 kts | 256° |
| 2026-05-06 15:49 | 35.62171 | -89.14779 | 14002 ft | 348 kts | 256° |
| 2026-05-06 15:49 | 35.61535 | -89.17656 | 14004 ft | 348 kts | 256° |
| 2026-05-06 15:50 | 35.60908 | -89.20489 | 14004 ft | 348 kts | 255° |
| 2026-05-06 15:50 | 35.60060 | -89.23278 | 14001 ft | 350 kts | 244° |
| 2026-05-06 15:50 | 35.58541 | -89.25633 | 14007 ft | 356 kts | 227° |
| 2026-05-06 15:50 | 35.56523 | -89.27443 | 14011 ft | 361 kts | 220° |
| 2026-05-06 15:51 | 35.54433 | -89.29170 | 14007 ft | 361 kts | 220° |
| 2026-05-06 15:51 | 35.52339 | -89.30877 | 14007 ft | 361 kts | 220° |
| 2026-05-06 15:51 | 35.50268 | -89.32555 | 14006 ft | 361 kts | 220° |
| 2026-05-06 15:51 | 35.48169 | -89.34252 | 13999 ft | 361 kts | 219° |
| 2026-05-06 15:52 | 35.46071 | -89.35950 | 14001 ft | 361 kts | 219° |
| 2026-05-06 15:52 | 35.43973 | -89.37650 | 14002 ft | 360 kts | 219° |
| 2026-05-06 15:52 | 35.41880 | -89.39356 | 14000 ft | 360 kts | 220° |
| 2026-05-06 15:52 | 35.39812 | -89.41047 | 14003 ft | 361 kts | 220° |
| 2026-05-06 15:53 | 35.37723 | -89.42757 | 14008 ft | 360 kts | 220° |
| 2026-05-06 15:53 | 35.35633 | -89.44460 | 14008 ft | 360 kts | 219° |
| 2026-05-06 15:53 | 35.33541 | -89.46160 | 14002 ft | 360 kts | 219° |
| 2026-05-06 15:53 | 35.31446 | -89.47855 | 14002 ft | 360 kts | 219° |
| 2026-05-06 15:54 | 35.29377 | -89.49532 | 14004 ft | 360 kts | 219° |
| 2026-05-06 15:54 | 35.27286 | -89.51230 | 14005 ft | 360 kts | 219° |
| 2026-05-06 15:54 | 35.25198 | -89.52923 | 14005 ft | 360 kts | 219° |
| 2026-05-06 15:54 | 35.23097 | -89.54621 | 13998 ft | 363 kts | 219° |
| 2026-05-06 15:55 | 35.20977 | -89.56341 | 14003 ft | 366 kts | 219° |
| 2026-05-06 15:55 | 35.18851 | -89.58066 | 14003 ft | 366 kts | 219° |
| 2026-05-06 15:55 | 35.16723 | -89.59790 | 14002 ft | 366 kts | 219° |
| 2026-05-06 15:55 | 35.14622 | -89.61487 | 14001 ft | 366 kts | 219° |
| 2026-05-06 15:56 | 35.12490 | -89.63211 | 14002 ft | 366 kts | 219° |
| 2026-05-06 15:56 | 35.10383 | -89.64910 | 13591 ft | 360 kts | 219° |
| 2026-05-06 15:56 | 35.08310 | -89.66581 | 12839 ft | 358 kts | 219° |
| 2026-05-06 15:56 | 35.06234 | -89.68256 | 12074 ft | 357 kts | 219° |
| 2026-05-06 15:57 | 35.04834 | -89.69384 | 11537 ft | 356 kts | 218° |
| 2026-05-06 15:57 | 35.02099 | -89.71591 | 10725 ft | 356 kts | 218° |
| 2026-05-06 15:57 | 35.00738 | -89.72685 | 10584 ft | 344 kts | 218° |
| 2026-05-06 15:57 | 34.98808 | -89.74224 | 10460 ft | 314 kts | 218° |
| 2026-05-06 15:58 | 34.97075 | -89.75593 | 10483 ft | 280 kts | 219° |
| 2026-05-06 15:58 | 34.95509 | -89.76830 | 10399 ft | 260 kts | 220° |
| 2026-05-06 15:58 | 34.94029 | -89.78016 | 10162 ft | 254 kts | 220° |
| 2026-05-06 15:58 | 34.92546 | -89.79221 | 9659 ft | 258 kts | 220° |
| 2026-05-06 15:59 | 34.91048 | -89.80444 | 9227 ft | 259 kts | 220° |
| 2026-05-06 15:59 | 34.89553 | -89.81658 | 8838 ft | 257 kts | 219° |
| 2026-05-06 15:59 | 34.88064 | -89.82860 | 8420 ft | 256 kts | 219° |
| 2026-05-06 15:59 | 34.86595 | -89.84042 | 7989 ft | 256 kts | 219° |
| 2026-05-06 16:00 | 34.85108 | -89.85234 | 7612 ft | 253 kts | 219° |
| 2026-05-06 16:00 | 34.83670 | -89.86377 | 7484 ft | 241 kts | 219° |
| 2026-05-06 16:00 | 34.82300 | -89.87464 | 7362 ft | 229 kts | 219° |
| 2026-05-06 16:00 | 34.81004 | -89.88495 | 7239 ft | 216 kts | 220° |
| 2026-05-06 16:01 | 34.79773 | -89.89480 | 7082 ft | 208 kts | 220° |
| 2026-05-06 16:01 | 34.78644 | -89.90513 | 6951 ft | 197 kts | 230° |
| 2026-05-06 16:01 | 34.77803 | -89.91776 | 6742 ft | 190 kts | 242° |
| 2026-05-06 16:01 | 34.77241 | -89.93197 | 6429 ft | 188 kts | 253° |
| 2026-05-06 16:02 | 34.76947 | -89.94745 | 6101 ft | 188 kts | 264° |
| 2026-05-06 16:02 | 34.76940 | -89.96334 | 5791 ft | 188 kts | 275° |
| 2026-05-06 16:02 | 34.77234 | -89.97870 | 5588 ft | 186 kts | 286° |
| 2026-05-06 16:02 | 34.78066 | -89.99118 | 5127 ft | 207 kts | 327° |
| 2026-05-06 16:03 | 34.79545 | -89.99304 | 4781 ft | 229 kts | 7° |
| 2026-05-06 16:03 | 34.80958 | -89.98354 | 4517 ft | 237 kts | 27° |
| 2026-05-06 16:03 | 34.82423 | -89.97691 | 4231 ft | 216 kts | 353° |
| 2026-05-06 16:03 | 34.83788 | -89.98134 | 3962 ft | 198 kts | 332° |
| 2026-05-06 16:04 | 34.85168 | -89.98387 | 3718 ft | 205 kts | 355° |
| 2026-05-06 16:04 | 34.86573 | -89.98363 | 3450 ft | 197 kts | 354° |
| 2026-05-06 16:04 | 34.87885 | -89.98378 | 3185 ft | 186 kts | 352° |
| 2026-05-06 16:04 | 34.89131 | -89.98402 | 2958 ft | 173 kts | 351° |
| 2026-05-06 16:05 | 34.90283 | -89.98425 | 2759 ft | 160 kts | 355° |
| 2026-05-06 16:05 | 34.91359 | -89.98450 | 2557 ft | 149 kts | 354° |
| 2026-05-06 16:05 | 34.92388 | -89.98473 | 2367 ft | 146 kts | 354° |
| 2026-05-06 16:05 | 34.93381 | -89.98494 | 2173 ft | 140 kts | 356° |
| 2026-05-06 16:06 | 34.94333 | -89.98515 | 1987 ft | 135 kts | 358° |
| 2026-05-06 16:06 | 34.95253 | -89.98536 | 1803 ft | 130 kts | 359° |
| 2026-05-06 16:06 | 34.96147 | -89.98555 | 1647 ft | 130 kts | 359° |
| 2026-05-06 16:06 | 34.97073 | -89.98574 | 1447 ft | 133 kts | 0° |
| 2026-05-06 16:07 | 34.97994 | -89.98595 | 1273 ft | 132 kts | 357° |
| 2026-05-06 16:07 | 34.98903 | -89.98615 | 1088 ft | 129 kts | 359° |
| 2026-05-06 16:07 | 34.99811 | -89.98634 | 894 ft | 130 kts | 357° |
| 2026-05-06 16:07 | 35.00705 | -89.98653 | 709 ft | 128 kts | 357° |
| 2026-05-06 16:08 | 35.01602 | -89.98676 | 555 ft | 129 kts | 357° |
| 2026-05-06 16:08 | 35.02490 | -89.98692 | 349 ft | 126 kts | 359° |
| 2026-05-06 16:08 | 35.03271 | -89.98711 | 318 ft | 89 kts | 359° |
| 2026-05-06 16:08 | 35.03727 | -89.98726 | 311 ft | 48 kts | 358° |
| 2026-05-06 16:09 | 35.04041 | -89.98733 | 300 ft | 41 kts | 0° |
| 2026-05-06 16:09 | 35.04208 | -89.98653 | 298 ft | 14 kts | 75° |
| 2026-05-06 16:09 | 35.04203 | -89.98607 | 299 ft | 0 kts | 108° |
| 2026-05-06 16:10 | 35.04217 | -89.98582 | 299 ft | 10 kts | 39° |
| 2026-05-06 16:10 | 35.04304 | -89.98592 | 298 ft | 16 kts | 343° |
| 2026-05-06 16:10 | 35.04410 | -89.98599 | 298 ft | 14 kts | 0° |
| 2026-05-06 16:11 | 35.04503 | -89.98602 | 298 ft | 12 kts | 358° |
| 2026-05-06 16:11 | 35.04584 | -89.98604 | 300 ft | 11 kts | 359° |
| 2026-05-06 16:11 | 35.04663 | -89.98592 | 299 ft | 12 kts | 28° |
| 2026-05-06 16:11 | 35.04666 | -89.98522 | 301 ft | 7 kts | 136° |
| 2026-05-06 16:12 | 35.04600 | -89.98508 | 299 ft | 11 kts | 178° |
| 2026-05-06 16:12 | 35.04530 | -89.98507 | 299 ft | 10 kts | 180° |
| 2026-05-06 16:12 | 35.04463 | -89.98505 | 297 ft | 9 kts | 178° |
| 2026-05-06 16:12 | 35.04394 | -89.98503 | 299 ft | 13 kts | 179° |
| 2026-05-06 16:13 | 35.04310 | -89.98501 | 300 ft | 12 kts | 179° |
| 2026-05-06 16:13 | 35.04202 | -89.98499 | 299 ft | 17 kts | 179° |
| 2026-05-06 16:13 | 35.04080 | -89.98496 | 303 ft | 17 kts | 179° |
| 2026-05-06 16:13 | 35.03978 | -89.98493 | 303 ft | 12 kts | 178° |
| 2026-05-06 16:14 | 35.03905 | -89.98478 | 306 ft | 11 kts | 143° |
| 2026-05-06 16:14 | 35.03884 | -89.98397 | 308 ft | 12 kts | 94° |
| 2026-05-06 16:14 | 35.03894 | -89.98299 | 307 ft | 13 kts | 58° |
| 2026-05-06 16:14 | 35.03981 | -89.98251 | 308 ft | 15 kts | 33° |
| 2026-05-06 16:15 | 35.04060 | -89.98182 | 309 ft | 13 kts | 34° |
| 2026-05-06 16:15 | 35.04127 | -89.98174 | 312 ft | 6 kts | 355° |
| 2026-05-06 16:15 | 35.04158 | -89.98176 | 310 ft | 0 kts | 358° |